sensor_id;sensor_type;location;lat;lon;timestamp;P1;durP1;ratioP1;P2;durP2;ratioP2
6878;SDS011;3478;51.462;7.338;2023-07-20T00:02:45;8.07;;;7.33;;
6878;SDS011;3478;51.462;7.338;2023-07-20T00:07:48;7.27;;;6.67;;
6878;SDS011;3478;51.462;7.338;2023-07-20T00:12:52;8.33;;;6.27;;
6878;SDS011;3478;51.462;7.338;2023-07-20T00:17:53;7.93;;;5.93;;
6878;SDS011;3478;51.462;7.338;2023-07-20T00:22:57;7.17;;;6.50;;
6878;SDS011;3478;51.462;7.338;2023-07-20T00:27:59;9.80;;;7.20;;
6878;SDS011;3478;51.462;7.338;2023-07-20T00:33:01;8.37;;;6.23;;
6878;SDS011;3478;51.462;7.338;2023-07-20T00:38:04;7.47;;;6.37;;
6878;SDS011;3478;51.462;7.338;2023-07-20T00:43:06;6.00;;;5.70;;
6878;SDS011;3478;51.462;7.338;2023-07-20T00:48:09;8.30;;;6.20;;
6878;SDS011;3478;51.462;7.338;2023-07-20T00:53:12;6.43;;;5.67;;
6878;SDS011;3478;51.462;7.338;2023-07-20T00:58:14;6.50;;;5.87;;
6878;SDS011;3478;51.462;7.338;2023-07-20T01:03:16;6.97;;;6.33;;
6878;SDS011;3478;51.462;7.338;2023-07-20T01:08:22;6.67;;;6.07;;
6878;SDS011;3478;51.462;7.338;2023-07-20T01:13:31;8.47;;;6.20;;
6878;SDS011;3478;51.462;7.338;2023-07-20T01:18:33;5.60;;;5.10;;
6878;SDS011;3478;51.462;7.338;2023-07-20T01:23:42;6.20;;;5.53;;
6878;SDS011;3478;51.462;7.338;2023-07-20T01:34:29;6.20;;;5.60;;
6878;SDS011;3478;51.462;7.338;2023-07-20T01:39:32;8.23;;;6.67;;
6878;SDS011;3478;51.462;7.338;2023-07-20T01:44:36;7.20;;;6.27;;
6878;SDS011;3478;51.462;7.338;2023-07-20T01:49:39;9.03;;;5.83;;
6878;SDS011;3478;51.462;7.338;2023-07-20T01:54:41;6.17;;;5.67;;
6878;SDS011;3478;51.462;7.338;2023-07-20T01:59:43;7.57;;;5.77;;
6878;SDS011;3478;51.462;7.338;2023-07-20T02:04:46;7.63;;;7.00;;
6878;SDS011;3478;51.462;7.338;2023-07-20T02:09:48;9.70;;;6.50;;
6878;SDS011;3478;51.462;7.338;2023-07-20T02:14:50;6.73;;;6.10;;
6878;SDS011;3478;51.462;7.338;2023-07-20T02:19:55;8.30;;;7.00;;
6878;SDS011;3478;51.462;7.338;2023-07-20T02:24:58;7.73;;;6.07;;
6878;SDS011;3478;51.462;7.338;2023-07-20T02:30:00;8.07;;;7.00;;
6878;SDS011;3478;51.462;7.338;2023-07-20T02:35:05;7.13;;;6.43;;
6878;SDS011;3478;51.462;7.338;2023-07-20T02:40:08;13.33;;;8.40;;
6878;SDS011;3478;51.462;7.338;2023-07-20T02:45:11;8.13;;;7.53;;
6878;SDS011;3478;51.462;7.338;2023-07-20T02:50:14;10.90;;;8.47;;
6878;SDS011;3478;51.462;7.338;2023-07-20T02:55:16;12.70;;;7.97;;
6878;SDS011;3478;51.462;7.338;2023-07-20T03:00:19;12.00;;;7.63;;
6878;SDS011;3478;51.462;7.338;2023-07-20T03:05:24;9.90;;;7.83;;
6878;SDS011;3478;51.462;7.338;2023-07-20T03:10:27;7.67;;;7.03;;
6878;SDS011;3478;51.462;7.338;2023-07-20T03:15:29;8.30;;;7.50;;
6878;SDS011;3478;51.462;7.338;2023-07-20T03:20:32;6.63;;;6.13;;
6878;SDS011;3478;51.462;7.338;2023-07-20T03:25:36;6.90;;;6.40;;
6878;SDS011;3478;51.462;7.338;2023-07-20T03:30:38;6.83;;;6.03;;
6878;SDS011;3478;51.462;7.338;2023-07-20T03:35:43;10.47;;;7.50;;
6878;SDS011;3478;51.462;7.338;2023-07-20T03:40:51;7.70;;;6.83;;
6878;SDS011;3478;51.462;7.338;2023-07-20T03:45:53;9.70;;;8.57;;
6878;SDS011;3478;51.462;7.338;2023-07-20T03:50:57;9.63;;;8.60;;
6878;SDS011;3478;51.462;7.338;2023-07-20T03:56:00;10.40;;;9.23;;
6878;SDS011;3478;51.462;7.338;2023-07-20T04:01:02;10.37;;;9.37;;
6878;SDS011;3478;51.462;7.338;2023-07-20T04:06:05;13.80;;;9.67;;
6878;SDS011;3478;51.462;7.338;2023-07-20T04:11:08;12.63;;;9.37;;
6878;SDS011;3478;51.462;7.338;2023-07-20T04:16:10;11.73;;;9.77;;
6878;SDS011;3478;51.462;7.338;2023-07-20T04:21:13;13.07;;;11.10;;
6878;SDS011;3478;51.462;7.338;2023-07-20T04:26:15;14.00;;;11.33;;
6878;SDS011;3478;51.462;7.338;2023-07-20T04:31:16;14.57;;;11.53;;
6878;SDS011;3478;51.462;7.338;2023-07-20T04:36:20;16.30;;;12.20;;
6878;SDS011;3478;51.462;7.338;2023-07-20T04:41:21;16.60;;;12.03;;
6878;SDS011;3478;51.462;7.338;2023-07-20T04:46:25;14.80;;;13.40;;
6878;SDS011;3478;51.462;7.338;2023-07-20T04:51:28;15.73;;;14.03;;
6878;SDS011;3478;51.462;7.338;2023-07-20T04:56:30;17.87;;;13.10;;
6878;SDS011;3478;51.462;7.338;2023-07-20T05:01:33;15.40;;;13.20;;
6878;SDS011;3478;51.462;7.338;2023-07-20T05:06:36;18.40;;;13.77;;
6878;SDS011;3478;51.462;7.338;2023-07-20T05:11:38;17.30;;;14.27;;
6878;SDS011;3478;51.462;7.338;2023-07-20T05:16:40;20.43;;;14.27;;
6878;SDS011;3478;51.462;7.338;2023-07-20T05:21:43;18.30;;;14.97;;
6878;SDS011;3478;51.462;7.338;2023-07-20T05:26:45;19.80;;;15.67;;
6878;SDS011;3478;51.462;7.338;2023-07-20T05:31:47;22.63;;;17.53;;
6878;SDS011;3478;51.462;7.338;2023-07-20T05:36:50;20.60;;;16.73;;
6878;SDS011;3478;51.462;7.338;2023-07-20T05:41:52;18.47;;;15.70;;
6878;SDS011;3478;51.462;7.338;2023-07-20T05:46:54;17.73;;;15.83;;
6878;SDS011;3478;51.462;7.338;2023-07-20T05:51:58;19.00;;;16.50;;
6878;SDS011;3478;51.462;7.338;2023-07-20T05:57:01;17.07;;;13.63;;
6878;SDS011;3478;51.462;7.338;2023-07-20T06:02:02;13.17;;;11.70;;
6878;SDS011;3478;51.462;7.338;2023-07-20T06:07:06;14.10;;;12.23;;
6878;SDS011;3478;51.462;7.338;2023-07-20T06:12:09;13.40;;;11.60;;
6878;SDS011;3478;51.462;7.338;2023-07-20T06:17:10;11.43;;;10.03;;
6878;SDS011;3478;51.462;7.338;2023-07-20T06:22:14;7.90;;;7.10;;
6878;SDS011;3478;51.462;7.338;2023-07-20T06:27:15;7.80;;;7.10;;
6878;SDS011;3478;51.462;7.338;2023-07-20T06:32:17;7.23;;;6.63;;
6878;SDS011;3478;51.462;7.338;2023-07-20T06:37:20;7.17;;;6.07;;
6878;SDS011;3478;51.462;7.338;2023-07-20T06:42:22;4.30;;;4.00;;
6878;SDS011;3478;51.462;7.338;2023-07-20T06:47:24;3.60;;;3.40;;
6878;SDS011;3478;51.462;7.338;2023-07-20T06:52:27;3.57;;;3.37;;
6878;SDS011;3478;51.462;7.338;2023-07-20T06:57:29;2.20;;;2.00;;
6878;SDS011;3478;51.462;7.338;2023-07-20T07:02:31;1.60;;;1.33;;
6878;SDS011;3478;51.462;7.338;2023-07-20T07:07:34;2.10;;;1.40;;
6878;SDS011;3478;51.462;7.338;2023-07-20T07:12:36;1.50;;;1.30;;
6878;SDS011;3478;51.462;7.338;2023-07-20T07:17:38;2.43;;;1.70;;
6878;SDS011;3478;51.462;7.338;2023-07-20T07:22:41;1.33;;;0.67;;
6878;SDS011;3478;51.462;7.338;2023-07-20T07:27:43;1.40;;;1.30;;
6878;SDS011;3478;51.462;7.338;2023-07-20T07:32:45;1.40;;;1.03;;
6878;SDS011;3478;51.462;7.338;2023-07-20T07:37:48;0.90;;;0.80;;
6878;SDS011;3478;51.462;7.338;2023-07-20T07:42:50;2.20;;;1.20;;
6878;SDS011;3478;51.462;7.338;2023-07-20T07:47:52;1.70;;;1.60;;
6878;SDS011;3478;51.462;7.338;2023-07-20T07:52:56;3.30;;;1.80;;
6878;SDS011;3478;51.462;7.338;2023-07-20T07:57:58;1.27;;;1.17;;
6878;SDS011;3478;51.462;7.338;2023-07-20T08:03:00;1.90;;;1.70;;
6878;SDS011;3478;51.462;7.338;2023-07-20T08:08:03;1.47;;;1.37;;
6878;SDS011;3478;51.462;7.338;2023-07-20T08:13:05;2.03;;;0.93;;
6878;SDS011;3478;51.462;7.338;2023-07-20T08:18:07;1.23;;;1.13;;
6878;SDS011;3478;51.462;7.338;2023-07-20T08:23:10;1.60;;;0.80;;
6878;SDS011;3478;51.462;7.338;2023-07-20T08:28:13;1.30;;;0.80;;
6878;SDS011;3478;51.462;7.338;2023-07-20T08:33:16;1.73;;;0.80;;
6878;SDS011;3478;51.462;7.338;2023-07-20T08:38:21;0.70;;;0.50;;
6878;SDS011;3478;51.462;7.338;2023-07-20T08:43:23;1.00;;;0.80;;
6878;SDS011;3478;51.462;7.338;2023-07-20T08:48:25;1.37;;;0.70;;
6878;SDS011;3478;51.462;7.338;2023-07-20T08:53:30;0.90;;;0.60;;
6878;SDS011;3478;51.462;7.338;2023-07-20T08:58:33;1.13;;;0.50;;
6878;SDS011;3478;51.462;7.338;2023-07-20T09:03:36;0.70;;;0.60;;
6878;SDS011;3478;51.462;7.338;2023-07-20T09:08:40;1.00;;;0.90;;
6878;SDS011;3478;51.462;7.338;2023-07-20T09:13:42;0.90;;;0.60;;
6878;SDS011;3478;51.462;7.338;2023-07-20T09:18:44;1.00;;;0.70;;
6878;SDS011;3478;51.462;7.338;2023-07-20T09:23:47;1.10;;;0.60;;
6878;SDS011;3478;51.462;7.338;2023-07-20T09:28:53;1.13;;;0.70;;
6878;SDS011;3478;51.462;7.338;2023-07-20T09:33:56;1.03;;;0.70;;
6878;SDS011;3478;51.462;7.338;2023-07-20T09:39:00;3.00;;;0.90;;
6878;SDS011;3478;51.462;7.338;2023-07-20T09:44:02;0.77;;;0.60;;
6878;SDS011;3478;51.462;7.338;2023-07-20T09:49:04;1.50;;;0.80;;
6878;SDS011;3478;51.462;7.338;2023-07-20T09:54:11;0.70;;;0.60;;
6878;SDS011;3478;51.462;7.338;2023-07-20T09:59:14;2.10;;;1.00;;
6878;SDS011;3478;51.462;7.338;2023-07-20T10:04:16;1.70;;;1.60;;
6878;SDS011;3478;51.462;7.338;2023-07-20T10:09:21;1.57;;;1.07;;
6878;SDS011;3478;51.462;7.338;2023-07-20T10:14:25;1.00;;;0.90;;
6878;SDS011;3478;51.462;7.338;2023-07-20T10:19:34;1.90;;;1.80;;
6878;SDS011;3478;51.462;7.338;2023-07-20T10:24:46;0.70;;;0.60;;
6878;SDS011;3478;51.462;7.338;2023-07-20T10:29:48;0.80;;;0.80;;
6878;SDS011;3478;51.462;7.338;2023-07-20T10:34:52;1.40;;;1.27;;
6878;SDS011;3478;51.462;7.338;2023-07-20T10:39:56;1.07;;;0.90;;
6878;SDS011;3478;51.462;7.338;2023-07-20T10:44:57;1.23;;;1.13;;
6878;SDS011;3478;51.462;7.338;2023-07-20T10:50:02;1.17;;;1.07;;
6878;SDS011;3478;51.462;7.338;2023-07-20T10:55:11;1.40;;;1.30;;
6878;SDS011;3478;51.462;7.338;2023-07-20T11:00:18;1.80;;;1.70;;
6878;SDS011;3478;51.462;7.338;2023-07-20T11:05:35;1.20;;;1.10;;
6878;SDS011;3478;51.462;7.338;2023-07-20T11:10:40;1.30;;;1.20;;
6878;SDS011;3478;51.462;7.338;2023-07-20T11:15:45;1.67;;;1.00;;
6878;SDS011;3478;51.462;7.338;2023-07-20T11:20:49;1.00;;;1.00;;
6878;SDS011;3478;51.462;7.338;2023-07-20T11:25:53;1.07;;;0.97;;
6878;SDS011;3478;51.462;7.338;2023-07-20T11:30:55;1.10;;;0.90;;
6878;SDS011;3478;51.462;7.338;2023-07-20T11:35:57;1.77;;;1.00;;
6878;SDS011;3478;51.462;7.338;2023-07-20T11:41:00;1.07;;;0.60;;
6878;SDS011;3478;51.462;7.338;2023-07-20T11:46:04;0.60;;;0.50;;
6878;SDS011;3478;51.462;7.338;2023-07-20T11:51:12;0.60;;;0.50;;
6878;SDS011;3478;51.462;7.338;2023-07-20T11:56:17;0.70;;;0.53;;
6878;SDS011;3478;51.462;7.338;2023-07-20T12:01:19;0.90;;;0.50;;
6878;SDS011;3478;51.462;7.338;2023-07-20T12:06:22;1.93;;;0.60;;
6878;SDS011;3478;51.462;7.338;2023-07-20T12:11:36;0.90;;;0.50;;
6878;SDS011;3478;51.462;7.338;2023-07-20T12:16:39;0.60;;;0.43;;
6878;SDS011;3478;51.462;7.338;2023-07-20T12:21:41;0.70;;;0.43;;
6878;SDS011;3478;51.462;7.338;2023-07-20T12:26:44;0.70;;;0.50;;
6878;SDS011;3478;51.462;7.338;2023-07-20T12:31:46;0.70;;;0.50;;
6878;SDS011;3478;51.462;7.338;2023-07-20T12:36:48;0.70;;;0.40;;
6878;SDS011;3478;51.462;7.338;2023-07-20T12:41:51;0.73;;;0.40;;
6878;SDS011;3478;51.462;7.338;2023-07-20T12:46:53;3.00;;;0.40;;
6878;SDS011;3478;51.462;7.338;2023-07-20T12:51:55;0.80;;;0.40;;
6878;SDS011;3478;51.462;7.338;2023-07-20T12:56:58;0.60;;;0.40;;
6878;SDS011;3478;51.462;7.338;2023-07-20T13:02:00;0.80;;;0.60;;
6878;SDS011;3478;51.462;7.338;2023-07-20T13:07:02;0.60;;;0.50;;
6878;SDS011;3478;51.462;7.338;2023-07-20T13:12:06;0.70;;;0.40;;
6878;SDS011;3478;51.462;7.338;2023-07-20T13:17:08;0.80;;;0.60;;
6878;SDS011;3478;51.462;7.338;2023-07-20T13:22:10;0.93;;;0.60;;
6878;SDS011;3478;51.462;7.338;2023-07-20T13:27:15;0.60;;;0.40;;
6878;SDS011;3478;51.462;7.338;2023-07-20T13:32:17;0.90;;;0.60;;
6878;SDS011;3478;51.462;7.338;2023-07-20T13:37:19;0.80;;;0.60;;
6878;SDS011;3478;51.462;7.338;2023-07-20T13:42:23;0.60;;;0.50;;
6878;SDS011;3478;51.462;7.338;2023-07-20T13:47:25;0.83;;;0.50;;
6878;SDS011;3478;51.462;7.338;2023-07-20T13:52:27;0.63;;;0.50;;
6878;SDS011;3478;51.462;7.338;2023-07-20T13:57:30;1.10;;;0.70;;
6878;SDS011;3478;51.462;7.338;2023-07-20T14:02:32;1.20;;;0.90;;
6878;SDS011;3478;51.462;7.338;2023-07-20T14:07:34;1.27;;;0.60;;
6878;SDS011;3478;51.462;7.338;2023-07-20T14:12:37;1.37;;;0.60;;
6878;SDS011;3478;51.462;7.338;2023-07-20T14:17:39;0.87;;;0.57;;
6878;SDS011;3478;51.462;7.338;2023-07-20T14:22:41;2.50;;;1.17;;
6878;SDS011;3478;51.462;7.338;2023-07-20T14:27:45;0.70;;;0.60;;
6878;SDS011;3478;51.462;7.338;2023-07-20T14:32:47;0.80;;;0.60;;
6878;SDS011;3478;51.462;7.338;2023-07-20T14:37:49;0.90;;;0.60;;
6878;SDS011;3478;51.462;7.338;2023-07-20T14:42:52;0.90;;;0.60;;
6878;SDS011;3478;51.462;7.338;2023-07-20T14:47:55;0.77;;;0.50;;
6878;SDS011;3478;51.462;7.338;2023-07-20T14:52:57;1.90;;;0.60;;
6878;SDS011;3478;51.462;7.338;2023-07-20T14:58:00;1.00;;;0.50;;
6878;SDS011;3478;51.462;7.338;2023-07-20T15:03:02;0.73;;;0.47;;
6878;SDS011;3478;51.462;7.338;2023-07-20T15:08:05;1.83;;;0.50;;
6878;SDS011;3478;51.462;7.338;2023-07-20T15:13:10;0.93;;;0.57;;
6878;SDS011;3478;51.462;7.338;2023-07-20T15:18:11;1.10;;;0.50;;
6878;SDS011;3478;51.462;7.338;2023-07-20T15:23:13;0.80;;;0.50;;
6878;SDS011;3478;51.462;7.338;2023-07-20T15:28:16;0.83;;;0.63;;
6878;SDS011;3478;51.462;7.338;2023-07-20T15:33:18;6.10;;;1.83;;
6878;SDS011;3478;51.462;7.338;2023-07-20T15:38:20;0.90;;;0.50;;
6878;SDS011;3478;51.462;7.338;2023-07-20T15:43:23;0.67;;;0.40;;
6878;SDS011;3478;51.462;7.338;2023-07-20T15:48:25;2.97;;;0.70;;
6878;SDS011;3478;51.462;7.338;2023-07-20T15:53:27;1.77;;;0.50;;
6878;SDS011;3478;51.462;7.338;2023-07-20T15:58:30;2.10;;;0.60;;
6878;SDS011;3478;51.462;7.338;2023-07-20T16:03:32;1.10;;;0.80;;
6878;SDS011;3478;51.462;7.338;2023-07-20T16:08:35;1.73;;;0.70;;
6878;SDS011;3478;51.462;7.338;2023-07-20T16:13:38;2.80;;;0.60;;
6878;SDS011;3478;51.462;7.338;2023-07-20T16:18:40;0.90;;;0.70;;
6878;SDS011;3478;51.462;7.338;2023-07-20T16:23:42;0.87;;;0.80;;
6878;SDS011;3478;51.462;7.338;2023-07-20T16:28:45;0.80;;;0.50;;
6878;SDS011;3478;51.462;7.338;2023-07-20T16:33:46;0.83;;;0.83;;
6878;SDS011;3478;51.462;7.338;2023-07-20T16:38:48;7.87;;;7.17;;
6878;SDS011;3478;51.462;7.338;2023-07-20T16:43:51;1.50;;;1.40;;
6878;SDS011;3478;51.462;7.338;2023-07-20T16:48:54;0.83;;;0.83;;
6878;SDS011;3478;51.462;7.338;2023-07-20T16:53:56;2.23;;;0.60;;
6878;SDS011;3478;51.462;7.338;2023-07-20T16:58:59;2.00;;;0.50;;
6878;SDS011;3478;51.462;7.338;2023-07-20T17:04:01;0.70;;;0.60;;
6878;SDS011;3478;51.462;7.338;2023-07-20T17:09:03;1.43;;;0.70;;
6878;SDS011;3478;51.462;7.338;2023-07-20T17:14:07;0.97;;;0.60;;
6878;SDS011;3478;51.462;7.338;2023-07-20T17:19:09;0.90;;;0.60;;
6878;SDS011;3478;51.462;7.338;2023-07-20T17:24:11;0.73;;;0.50;;
6878;SDS011;3478;51.462;7.338;2023-07-20T17:29:14;1.77;;;1.00;;
6878;SDS011;3478;51.462;7.338;2023-07-20T17:34:16;0.90;;;0.60;;
6878;SDS011;3478;51.462;7.338;2023-07-20T17:39:18;1.37;;;0.40;;
6878;SDS011;3478;51.462;7.338;2023-07-20T17:44:21;1.10;;;0.60;;
6878;SDS011;3478;51.462;7.338;2023-07-20T17:49:23;0.70;;;0.40;;
6878;SDS011;3478;51.462;7.338;2023-07-20T17:54:25;1.80;;;0.50;;
6878;SDS011;3478;51.462;7.338;2023-07-20T17:59:28;0.67;;;0.40;;
6878;SDS011;3478;51.462;7.338;2023-07-20T18:04:31;0.60;;;0.40;;
6878;SDS011;3478;51.462;7.338;2023-07-20T18:09:33;1.37;;;0.53;;
6878;SDS011;3478;51.462;7.338;2023-07-20T18:14:36;0.70;;;0.50;;
6878;SDS011;3478;51.462;7.338;2023-07-20T18:19:38;0.77;;;0.40;;
6878;SDS011;3478;51.462;7.338;2023-07-20T18:24:40;0.87;;;0.40;;
6878;SDS011;3478;51.462;7.338;2023-07-20T18:29:43;0.80;;;0.50;;
6878;SDS011;3478;51.462;7.338;2023-07-20T18:34:45;0.90;;;0.60;;
6878;SDS011;3478;51.462;7.338;2023-07-20T18:39:47;1.53;;;0.50;;
6878;SDS011;3478;51.462;7.338;2023-07-20T18:44:51;2.00;;;0.50;;
6878;SDS011;3478;51.462;7.338;2023-07-20T18:49:52;1.63;;;0.60;;
6878;SDS011;3478;51.462;7.338;2023-07-20T18:54:56;0.80;;;0.40;;
6878;SDS011;3478;51.462;7.338;2023-07-20T18:59:59;0.77;;;0.50;;
6878;SDS011;3478;51.462;7.338;2023-07-20T19:05:01;0.80;;;0.50;;
6878;SDS011;3478;51.462;7.338;2023-07-20T19:10:05;0.80;;;0.60;;
6878;SDS011;3478;51.462;7.338;2023-07-20T19:15:11;0.80;;;0.50;;
6878;SDS011;3478;51.462;7.338;2023-07-20T19:20:13;1.13;;;0.70;;
6878;SDS011;3478;51.462;7.338;2023-07-20T19:25:15;1.10;;;0.67;;
6878;SDS011;3478;51.462;7.338;2023-07-20T19:30:18;4.63;;;0.80;;
6878;SDS011;3478;51.462;7.338;2023-07-20T19:35:20;0.83;;;0.50;;
6878;SDS011;3478;51.462;7.338;2023-07-20T19:40:22;0.90;;;0.40;;
6878;SDS011;3478;51.462;7.338;2023-07-20T19:45:25;4.77;;;0.83;;
6878;SDS011;3478;51.462;7.338;2023-07-20T19:50:27;0.90;;;0.50;;
6878;SDS011;3478;51.462;7.338;2023-07-20T19:55:29;0.80;;;0.50;;
6878;SDS011;3478;51.462;7.338;2023-07-20T20:00:34;1.00;;;0.63;;
6878;SDS011;3478;51.462;7.338;2023-07-20T20:05:38;3.27;;;0.60;;
6878;SDS011;3478;51.462;7.338;2023-07-20T20:10:40;1.00;;;0.50;;
6878;SDS011;3478;51.462;7.338;2023-07-20T20:15:44;0.70;;;0.50;;
6878;SDS011;3478;51.462;7.338;2023-07-20T20:20:45;0.70;;;0.50;;
6878;SDS011;3478;51.462;7.338;2023-07-20T20:25:47;0.70;;;0.50;;
6878;SDS011;3478;51.462;7.338;2023-07-20T20:30:51;0.60;;;0.50;;
6878;SDS011;3478;51.462;7.338;2023-07-20T20:35:52;1.90;;;0.50;;
6878;SDS011;3478;51.462;7.338;2023-07-20T20:40:55;0.80;;;0.50;;
6878;SDS011;3478;51.462;7.338;2023-07-20T20:46:02;2.90;;;0.70;;
6878;SDS011;3478;51.462;7.338;2023-07-20T20:51:05;0.90;;;0.47;;
6878;SDS011;3478;51.462;7.338;2023-07-20T20:56:07;2.90;;;0.50;;
6878;SDS011;3478;51.462;7.338;2023-07-20T21:01:10;0.87;;;0.60;;
6878;SDS011;3478;51.462;7.338;2023-07-20T21:06:12;1.10;;;0.53;;
6878;SDS011;3478;51.462;7.338;2023-07-20T21:11:14;1.10;;;0.50;;
6878;SDS011;3478;51.462;7.338;2023-07-20T21:16:17;2.40;;;0.50;;
6878;SDS011;3478;51.462;7.338;2023-07-20T21:21:19;0.70;;;0.50;;
6878;SDS011;3478;51.462;7.338;2023-07-20T21:26:20;0.80;;;0.60;;
6878;SDS011;3478;51.462;7.338;2023-07-20T21:31:24;1.00;;;0.50;;
6878;SDS011;3478;51.462;7.338;2023-07-20T21:36:25;2.30;;;0.50;;
6878;SDS011;3478;51.462;7.338;2023-07-20T21:41:27;0.67;;;0.50;;
6878;SDS011;3478;51.462;7.338;2023-07-20T21:46:31;0.97;;;0.70;;
6878;SDS011;3478;51.462;7.338;2023-07-20T21:51:33;1.83;;;1.50;;
6878;SDS011;3478;51.462;7.338;2023-07-20T21:56:35;1.90;;;1.80;;
6878;SDS011;3478;51.462;7.338;2023-07-20T22:01:38;2.40;;;2.30;;
6878;SDS011;3478;51.462;7.338;2023-07-20T22:06:40;2.40;;;2.30;;
6878;SDS011;3478;51.462;7.338;2023-07-20T22:11:46;2.00;;;1.90;;
6878;SDS011;3478;51.462;7.338;2023-07-20T22:16:49;3.83;;;3.63;;
6878;SDS011;3478;51.462;7.338;2023-07-20T22:21:51;3.80;;;3.50;;
6878;SDS011;3478;51.462;7.338;2023-07-20T22:26:53;4.30;;;4.00;;
6878;SDS011;3478;51.462;7.338;2023-07-20T22:31:57;4.10;;;3.90;;
6878;SDS011;3478;51.462;7.338;2023-07-20T22:36:59;3.83;;;3.53;;
6878;SDS011;3478;51.462;7.338;2023-07-20T22:42:01;4.37;;;4.17;;
6878;SDS011;3478;51.462;7.338;2023-07-20T22:47:05;5.27;;;4.87;;
6878;SDS011;3478;51.462;7.338;2023-07-20T22:52:07;4.80;;;4.50;;
6878;SDS011;3478;51.462;7.338;2023-07-20T22:57:09;5.17;;;4.73;;
6878;SDS011;3478;51.462;7.338;2023-07-20T23:02:12;6.03;;;5.53;;
6878;SDS011;3478;51.462;7.338;2023-07-20T23:07:14;4.87;;;4.57;;
6878;SDS011;3478;51.462;7.338;2023-07-20T23:12:17;5.60;;;5.30;;
6878;SDS011;3478;51.462;7.338;2023-07-20T23:17:20;5.67;;;5.10;;
6878;SDS011;3478;51.462;7.338;2023-07-20T23:22:22;5.30;;;5.00;;
6878;SDS011;3478;51.462;7.338;2023-07-20T23:27:24;6.50;;;5.70;;
6878;SDS011;3478;51.462;7.338;2023-07-20T23:32:27;5.53;;;5.13;;
6878;SDS011;3478;51.462;7.338;2023-07-20T23:37:29;5.57;;;5.23;;
6878;SDS011;3478;51.462;7.338;2023-07-20T23:42:30;5.37;;;5.00;;
6878;SDS011;3478;51.462;7.338;2023-07-20T23:47:34;5.27;;;4.80;;
6878;SDS011;3478;51.462;7.338;2023-07-20T23:52:36;5.10;;;4.70;;
6878;SDS011;3478;51.462;7.338;2023-07-20T23:57:38;5.30;;;5.00;;
